Time;durP1;ratioP1;P1;durP2;ratioP2;P2;SDS_P1;SDS_P2;PMS_P1;PMS_P2;Temp;Humidity;BMP_temperature;BMP_pressure;BME280_temperature;BME280_humidity;BME280_pressure;Samples;Min_cycle;Max_cycle;Signal;HPM_P1;HPM_P2
2021/12/01 00:00:44;;;;;;;;;7.00;6.00;;;;;8.82;72.19;100380.78;5054821;28;46939;-61
2021/12/01 00:03:09;;;;;;;;;5.25;5.25;;;;;8.99;72.34;100398.69;5056047;28;45393;-63
2021/12/01 00:05:35;;;;;;;;;7.00;5.75;;;;;9.02;72.96;100398.28;5056502;28;45213;-63
2021/12/01 00:08:00;;;;;;;;;6.00;6.00;;;;;8.99;73.02;100396.81;5038071;28;45330;-62
2021/12/01 00:10:27;;;;;;;;;7.75;5.00;;;;;9.02;72.74;100401.00;5054764;27;47474;-62
2021/12/01 00:12:53;;;;;;;;;6.40;6.00;;;;;9.04;71.84;100396.16;5055992;28;45408;-61
2021/12/01 00:15:19;;;;;;;;;7.00;6.00;;;;;9.04;72.11;100377.84;5056437;28;45383;-59
2021/12/01 00:17:44;;;;;;;;;6.50;6.00;;;;;9.05;72.73;100379.53;5055969;28;45499;-59
2021/12/01 00:20:12;;;;;;;;;10.00;6.00;;;;;9.05;72.34;100360.38;5055802;28;46545;-57
2021/12/01 00:22:38;;;;;;;;;7.00;7.00;;;;;9.08;72.83;100359.94;5056476;28;45959;-61
2021/12/01 00:25:04;;;;;;;;;5.75;5.75;;;;;9.03;72.65;100351.50;5056150;28;45620;-61
2021/12/01 00:27:30;;;;;;;;;7.00;6.60;;;;;8.91;73.15;100325.84;5054410;28;45335;-61
2021/12/01 00:29:57;;;;;;;;;6.50;6.25;;;;;9.04;72.90;100325.00;5071156;27;46891;-61
2021/12/01 00:32:22;;;;;;;;;7.20;6.40;;;;;9.07;72.33;100325.41;5054597;28;45291;-57
2021/12/01 00:34:48;;;;;;;;;7.25;7.25;;;;;9.09;72.93;100319.72;5054357;28;45364;-58
2021/12/01 00:37:13;;;;;;;;;5.75;5.50;;;;;8.71;72.22;100246.50;5055946;28;45165;-59
2021/12/01 00:39:39;;;;;;;;;6.00;5.00;;;;;9.04;72.23;100276.56;5055403;28;46360;-60
2021/12/01 00:42:06;;;;;;;;;4.00;4.00;;;;;9.06;72.69;100279.06;5055532;28;45399;-60
2021/12/01 00:44:34;;;;;;;;;5.00;5.00;;;;;9.02;73.25;100255.94;5054309;28;45431;-62
2021/12/01 00:49:28;;;;;;;;;4.60;4.60;;;;;9.08;72.75;100255.91;5049056;28;46719;-59
2021/12/01 00:51:54;;;;;;;;;4.60;4.60;;;;;9.11;73.22;100245.59;5055426;28;45642;-60
2021/12/01 00:54:19;;;;;;;;;6.00;5.25;;;;;8.39;73.03;100129.50;5055689;28;45425;-60
2021/12/01 00:56:45;;;;;;;;;6.50;5.00;;;;;9.02;72.58;100229.38;5055078;28;45369;-60
2021/12/01 00:59:10;;;;;;;;;3.75;3.75;;;;;9.11;73.33;100237.38;5054579;28;45333;-62
2021/12/01 01:01:36;;;;;;;;;6.00;4.75;;;;;9.05;72.37;100217.16;5055279;28;45464;-62
2021/12/01 01:04:01;;;;;;;;;6.00;3.50;;;;;9.09;72.68;100221.16;5071005;27;45423;-62
2021/12/01 01:06:27;;;;;;;;;3.00;3.00;;;;;9.09;72.10;100221.16;5054345;28;45444;-61
2021/12/01 01:08:53;;;;;;;;;7.50;5.75;;;;;8.91;72.46;100180.78;5053407;28;47602;-62
2021/12/01 01:16:49;;;;;;;;;4.20;3.40;;;;;9.13;72.01;100205.16;5054723;28;45391;-61
2021/12/01 01:19:15;;;;;;;;;3.20;3.00;;;;;9.05;72.41;100193.38;5054862;28;46994;-61
2021/12/01 01:21:47;;;;;;;;;5.25;2.00;;;;;9.07;72.88;100184.94;5053967;28;45451;-59
2021/12/01 01:24:12;;;;;;;;;3.00;3.00;;;;;9.14;71.98;100193.13;5036982;28;45431;-61
2021/12/01 01:26:38;;;;;;;;;2.75;2.75;;;;;9.09;72.85;100183.66;5070298;28;45313;-61
2021/12/01 01:29:04;;;;;;;;;3.00;3.00;;;;;9.14;72.15;100185.78;5036563;28;45842;-63
2021/12/01 01:31:29;;;;;;;;;6.25;3.00;;;;;9.13;72.83;100172.28;5054613;28;45363;-61
2021/12/01 01:33:57;;;;;;;;;4.75;4.75;;;;;9.15;72.66;100170.16;5036805;28;45379;-60
2021/12/01 01:36:23;;;;;;;;;6.20;5.20;;;;;9.16;72.75;100169.09;5055309;28;45323;-60
2021/12/01 01:38:48;;;;;;;;;5.25;5.25;;;;;9.08;72.93;100154.59;5054516;28;45529;-61
2021/12/01 01:41:14;;;;;;;;;5.00;5.00;;;;;9.14;73.15;100168.50;5054887;28;45500;-63
2021/12/01 01:43:40;;;;;;;;;6.75;6.75;;;;;9.13;72.54;100161.34;5053628;28;45381;-60
2021/12/01 01:46:06;;;;;;;;;5.50;5.50;;;;;9.12;72.79;100148.72;5055048;28;45642;-61
2021/12/01 01:48:32;;;;;;;;;2.75;2.75;;;;;9.15;73.33;100159.22;5054388;28;46273;-62
2021/12/01 01:50:59;;;;;;;;;6.00;5.20;;;;;9.15;73.49;100156.47;5053225;28;45485;-61
2021/12/01 01:53:26;;;;;;;;;8.00;6.80;;;;;9.15;72.95;100151.00;5054623;28;45372;-59
2021/12/01 01:55:54;;;;;;;;;5.60;3.80;;;;;9.11;72.66;100152.50;5055631;28;45660;-58
2021/12/01 01:58:21;;;;;;;;;7.20;5.80;;;;;9.13;72.79;100158.59;5040289;28;47286;-61
2021/12/01 02:00:51;;;;;;;;;7.80;7.80;;;;;9.12;73.11;100151.44;5058622;28;45506;-61
2021/12/01 02:03:18;;;;;;;;;4.80;4.80;;;;;9.13;73.04;100153.13;5040859;28;45387;-57
2021/12/01 02:05:44;;;;;;;;;3.80;3.00;;;;;9.13;72.64;100142.16;5057424;28;45378;-59
2021/12/01 02:08:20;;;;;;;;;6.75;6.00;;;;;9.12;72.52;100137.75;5058438;28;46552;-59
2021/12/01 02:10:49;;;;;;;;;4.60;4.60;;;;;8.91;73.47;100091.28;5056875;28;45496;-62
2021/12/01 02:13:19;;;;;;;;;7.00;5.80;;;;;9.15;73.02;100134.56;5056974;28;45417;-60
2021/12/01 02:15:45;;;;;;;;;6.20;6.20;;;;;9.14;73.67;100127.41;5058409;28;45301;-61
2021/12/01 02:18:11;;;;;;;;;6.80;6.80;;;;;9.08;73.51;100118.19;5039913;28;47049;-61
2021/12/01 02:20:37;;;;;;;;;7.75;6.75;;;;;9.09;73.80;100108.91;5057907;28;45417;-62
2021/12/01 02:23:02;;;;;;;;;7.50;7.50;;;;;9.09;73.49;100106.19;5039887;28;45260;-62
2021/12/01 02:25:28;;;;;;;;;8.00;6.75;;;;;9.00;74.23;100089.16;5058083;28;45398;-61
2021/12/01 02:27:54;;;;;;;;;8.00;7.00;;;;;9.09;74.72;100096.06;5055995;28;46622;-60
2021/12/01 02:30:19;;;;;;;;;9.60;8.20;;;;;8.99;74.57;100082.00;5039562;28;45400;-61
2021/12/01 02:32:45;;;;;;;;;9.25;8.00;;;;;9.05;74.93;100085.75;5057593;28;45343;-58
2021/12/01 02:35:11;;;;;;;;;9.50;9.50;;;;;9.02;75.75;100078.81;5057695;28;45215;-61
2021/12/01 02:37:36;;;;;;;;;15.00;10.50;;;;;8.75;75.13;100026.94;5057157;28;45932;-60
2021/12/01 02:40:03;;;;;;;;;6.00;6.00;;;;;8.99;75.00;100057.38;5055494;28;45838;-61
2021/12/01 02:42:28;;;;;;;;;10.00;9.20;;;;;8.86;75.33;100035.53;5055922;28;45408;-61
2021/12/01 02:44:54;;;;;;;;;10.75;9.75;;;;;8.91;76.70;100043.94;5056373;28;45728;-61
2021/12/01 02:47:22;;;;;;;;;11.20;10.20;;;;;8.92;76.58;100040.97;5019984;28;47527;-61
2021/12/01 02:49:49;;;;;;;;;10.40;10.40;;;;;8.91;76.85;100028.34;5057199;28;45487;-59
2021/12/01 02:52:15;;;;;;;;;7.20;7.20;;;;;8.90;76.43;100021.19;5039524;28;45419;-60
2021/12/01 02:54:40;;;;;;;;;10.20;7.80;;;;;8.87;75.99;100004.38;5055563;28;45628;-61
2021/12/01 02:57:06;;;;;;;;;5.75;5.75;;;;;8.86;76.37;100013.66;5056950;28;46716;-63
2021/12/01 02:59:32;;;;;;;;;11.75;10.00;;;;;8.87;76.44;100002.50;5057172;28;45791;-62
2021/12/01 03:01:57;;;;;;;;;11.00;7.75;;;;;8.90;76.38;99987.50;5057263;28;45289;-63
2021/12/01 03:04:23;;;;;;;;;5.25;5.25;;;;;8.89;76.45;99975.75;5039073;28;45446;-63
2021/12/01 03:06:49;;;;;;;;;5.75;5.75;;;;;8.91;76.44;99957.19;5038447;28;45385;-61
2021/12/01 03:09:15;;;;;;;;;6.50;5.50;;;;;8.78;76.57;99921.69;5055579;28;45489;-60
2021/12/01 03:11:42;;;;;;;;;4.50;4.50;;;;;8.73;75.81;99916.03;5055410;28;45461;-60
2021/12/01 03:14:09;;;;;;;;;5.40;5.40;;;;;8.92;76.85;99926.03;5056883;28;45396;-59
2021/12/01 03:16:35;;;;;;;;;3.80;3.80;;;;;8.92;76.08;99909.59;5057120;28;45781;-62
2021/12/01 03:19:00;;;;;;;;;5.25;5.25;;;;;8.90;76.26;99910.88;5038405;28;45495;-61
2021/12/01 03:21:26;;;;;;;;;3.00;2.75;;;;;8.93;76.43;99916.75;5055520;28;45388;-62
2021/12/01 03:23:51;;;;;;;;;5.00;3.00;;;;;8.89;76.08;99909.19;5056920;28;45345;-62
2021/12/01 03:26:17;;;;;;;;;5.00;2.00;;;;;8.97;76.29;99914.44;5054634;28;47036;-61
2021/12/01 03:28:42;;;;;;;;;3.25;2.50;;;;;8.94;75.99;99903.91;5056759;28;45404;-59
2021/12/01 03:31:08;;;;;;;;;2.00;2.00;;;;;8.99;76.48;99895.88;5057110;28;45360;-59
2021/12/01 03:33:33;;;;;;;;;3.00;3.00;;;;;9.01;76.19;99898.41;5038860;28;45225;-60
2021/12/01 03:35:59;;;;;;;;;2.00;2.00;;;;;9.02;76.66;99897.34;5056371;28;46400;-60
2021/12/01 03:38:26;;;;;;;;;1.00;1.00;;;;;9.02;76.26;99872.69;5089495;27;45847;-60
2021/12/01 03:40:52;;;;;;;;;1.20;1.20;;;;;9.03;76.13;99877.94;5056757;28;45441;-62
2021/12/01 03:43:18;;;;;;;;;2.50;1.25;;;;;8.92;76.46;99843.09;5055542;28;45377;-61
2021/12/01 03:45:44;;;;;;;;;1.25;1.25;;;;;9.07;76.67;99860.00;5056761;28;46156;-61
2021/12/01 03:48:09;;;;;;;;;3.00;1.50;;;;;9.08;76.43;99848.00;5056534;28;45378;-61
2021/12/01 03:50:35;;;;;;;;;3.00;2.00;;;;;8.84;77.30;99802.31;5056419;28;45482;-59
2021/12/01 03:53:01;;;;;;;;;4.80;1.40;;;;;9.09;77.36;99821.47;5052050;28;45654;-58
2021/12/01 03:55:27;;;;;;;;;2.00;2.00;;;;;9.02;77.30;99824.25;5037201;28;45900;-60
2021/12/01 03:57:52;;;;;;;;;3.00;3.00;;;;;9.08;77.23;99823.34;5075009;27;45441;-55
2021/12/01 04:00:18;;;;;;;;;4.00;2.00;;;;;9.08;77.79;99808.84;5072117;28;45475;-57
2021/12/01 04:02:43;;;;;;;;;2.00;2.00;;;;;9.11;78.49;99796.63;5073307;27;45343;-60
2021/12/01 04:05:09;;;;;;;;;2.00;2.00;;;;;9.09;78.49;99791.38;5075233;28;46083;-62
2021/12/01 04:07:35;;;;;;;;;6.00;3.60;;;;;9.08;78.49;99785.03;5075587;27;45526;-61
2021/12/01 04:10:01;;;;;;;;;3.00;3.00;;;;;9.11;80.10;99781.00;5076219;28;45322;-62
2021/12/01 04:12:27;;;;;;;;;3.25;2.75;;;;;9.07;79.49;99766.94;5107874;27;45510;-62
2021/12/01 04:14:52;;;;;;;;;6.00;4.80;;;;;9.06;79.68;99735.16;5071295;28;47443;-60
2021/12/01 04:17:18;;;;;;;;;2.75;2.75;;;;;8.88;79.25;99708.63;5105969;27;45521;-60
2021/12/01 04:19:45;;;;;;;;;5.00;3.00;;;;;9.05;79.91;99730.75;5074580;27;45358;-60
2021/12/01 04:22:10;;;;;;;;;3.20;3.20;;;;;9.03;79.92;99719.19;5075461;27;45648;-60
2021/12/01 04:24:36;;;;;;;;;4.75;3.00;;;;;8.93;79.60;99707.94;5108944;27;47045;-60
2021/12/01 04:27:02;;;;;;;;;5.25;5.25;;;;;9.01;79.95;99709.53;5076052;27;45408;-61
2021/12/01 04:29:27;;;;;;;;;5.00;5.00;;;;;8.96;80.35;99702.00;5076486;27;45344;-61
2021/12/01 04:31:53;;;;;;;;;4.75;4.75;;;;;8.94;80.50;99694.03;5058628;28;45403;-61
2021/12/01 04:34:20;;;;;;;;;5.25;3.25;;;;;8.91;80.62;99705.41;5074516;28;46034;-60
2021/12/01 04:36:47;;;;;;;;;5.20;5.20;;;;;8.92;81.11;99706.25;5075858;27;45301;-56
2021/12/01 04:39:14;;;;;;;;;5.80;4.40;;;;;8.92;80.58;99695.31;5076428;27;45513;-58
2021/12/01 04:41:47;;;;;;;;;3.80;3.80;;;;;8.94;80.13;99676.75;5076544;27;45399;-56
2021/12/01 04:44:14;;;;;;;;;4.60;4.60;;;;;8.91;80.05;99675.31;5076092;27;45381;-61
2021/12/01 04:46:43;;;;;;;;;5.40;3.80;;;;;8.91;80.15;99672.56;5075944;27;45242;-58
2021/12/01 04:49:09;;;;;;;;;3.40;3.40;;;;;8.90;80.64;99665.44;5075048;28;45426;-58
2021/12/01 04:51:35;;;;;;;;;6.00;5.00;;;;;8.85;80.78;99648.03;5075232;28;45444;-57
2021/12/01 04:54:02;;;;;;;;;2.75;2.75;;;;;8.95;80.26;99656.53;5064838;27;46079;-61
2021/12/01 04:56:27;;;;;;;;;5.00;2.20;;;;;8.93;80.81;99647.72;5054157;28;46007;-61
2021/12/01 04:58:53;;;;;;;;;5.00;5.00;;;;;8.67;81.16;99605.91;5054465;28;45846;-61
2021/12/01 05:01:18;;;;;;;;;2.75;2.00;;;;;8.92;80.56;99635.09;5054299;28;45918;-61
2021/12/01 05:03:44;;;;;;;;;1.00;1.00;;;;;8.72;81.25;99600.59;5054055;28;46830;-59
2021/12/01 05:06:12;;;;;;;;;1.50;1.00;;;;;8.88;80.53;99618.31;5053908;28;45374;-59
2021/12/01 05:08:38;;;;;;;;;1.40;1.40;;;;;8.84;81.28;99624.44;5055520;28;45383;-57
2021/12/01 05:11:04;;;;;;;;;0.00;0.00;;;;;8.80;81.28;99597.56;5054237;28;45442;-61
2021/12/01 05:13:29;;;;;;;;;0.50;0.50;;;;;8.88;81.18;99592.84;5053558;28;47616;-63
2021/12/01 05:15:55;;;;;;;;;2.00;2.00;;;;;8.81;81.11;99585.53;5055128;28;45878;-62
2021/12/01 05:18:21;;;;;;;;;1.00;1.00;;;;;8.84;82.18;99595.19;5037570;28;45421;-61
2021/12/01 05:20:46;;;;;;;;;2.00;0.25;;;;;8.82;81.84;99597.34;5054296;28;45766;-61
2021/12/01 05:23:15;;;;;;;;;0.75;0.75;;;;;8.84;81.43;99569.72;5055419;28;45276;-62
2021/12/01 05:25:44;;;;;;;;;0.00;0.00;;;;;8.77;81.50;99564.34;5021302;28;46211;-60
2021/12/01 05:28:09;;;;;;;;;0.00;0.00;;;;;8.84;82.34;99569.72;5054914;28;45506;-60
2021/12/01 05:30:35;;;;;;;;;0.00;0.00;;;;;8.81;81.29;99568.31;5054789;28;45508;-60
2021/12/01 05:33:05;;;;;;;;;0.50;0.00;;;;;8.79;81.92;99564.94;5054841;28;45416;-62
2021/12/01 05:35:31;;;;;;;;;0.00;0.00;;;;;8.84;81.35;99575.19;5053960;28;45399;-62
2021/12/01 05:37:57;;;;;;;;;0.50;0.50;;;;;8.83;82.01;99571.63;5054873;28;45313;-61
2021/12/01 05:40:23;;;;;;;;;0.00;0.00;;;;;8.67;82.32;99529.31;5054084;28;45839;-61
2021/12/01 05:42:48;;;;;;;;;0.00;0.00;;;;;8.79;81.99;99546.63;5054486;28;46023;-59
2021/12/01 05:45:14;;;;;;;;;0.00;0.00;;;;;8.86;81.76;99545.72;5054693;28;45650;-59
2021/12/01 05:47:39;;;;;;;;;0.00;0.00;;;;;8.80;81.40;99540.09;5054834;28;45405;-59
2021/12/01 05:50:05;;;;;;;;;0.00;0.00;;;;;8.87;81.28;99536.44;5055352;28;45490;-59
2021/12/01 05:52:30;;;;;;;;;0.75;0.00;;;;;8.85;81.47;99541.31;5053372;28;47891;-60
2021/12/01 05:54:56;;;;;;;;;0.00;0.00;;;;;8.82;81.19;99521.53;5052888;28;45373;-62
2021/12/01 05:57:22;;;;;;;;;0.00;0.00;;;;;8.84;82.11;99521.31;5054418;28;45249;-62
2021/12/01 05:59:47;;;;;;;;;0.00;0.00;;;;;8.93;81.74;99527.31;5054717;28;45376;-61
2021/12/01 06:02:13;;;;;;;;;0.00;0.00;;;;;8.74;81.96;99493.66;5053048;28;45449;-61
2021/12/01 06:04:38;;;;;;;;;0.00;0.00;;;;;8.93;81.02;99521.84;5054760;28;45386;-61
2021/12/01 06:07:04;;;;;;;;;1.00;0.00;;;;;8.93;82.23;99522.66;5054529;28;45245;-61
2021/12/01 06:09:30;;;;;;;;;0.25;0.25;;;;;8.95;82.00;99509.59;5054979;28;45775;-58
2021/12/01 06:11:56;;;;;;;;;0.00;0.00;;;;;8.98;81.31;99499.25;5054016;28;46019;-60
2021/12/01 06:14:21;;;;;;;;;1.00;1.00;;;;;8.96;82.04;99483.06;5054231;28;45328;-60
2021/12/01 06:16:47;;;;;;;;;0.00;0.00;;;;;8.96;81.68;99469.38;5053532;28;45407;-61
2021/12/01 06:19:12;;;;;;;;;0.00;0.00;;;;;8.97;81.28;99490.22;5054866;28;45683;-60
2021/12/01 06:21:38;;;;;;;;;0.50;0.50;;;;;8.99;81.66;99493.56;5053800;28;46059;-61
2021/12/01 06:24:04;;;;;;;;;0.00;0.00;;;;;9.02;82.09;99495.81;5054153;28;45422;-61
2021/12/01 06:26:29;;;;;;;;;0.00;0.00;;;;;9.06;82.07;99474.28;5054102;28;45542;-61
2021/12/01 06:28:55;;;;;;;;;0.00;0.00;;;;;9.04;81.86;99463.59;5053141;28;45638;-61
2021/12/01 06:31:20;;;;;;;;;1.00;0.50;;;;;9.05;81.63;99451.56;5054049;28;46379;-60
2021/12/01 06:33:46;;;;;;;;;1.00;1.00;;;;;9.06;82.82;99453.22;5052671;28;45904;-60
2021/12/01 06:36:11;;;;;;;;;0.00;0.00;;;;;9.05;81.92;99462.50;5028364;28;45827;-59
2021/12/01 06:38:39;;;;;;;;;0.25;0.25;;;;;8.79;82.24;99403.53;5074705;27;45853;-61
2021/12/01 06:41:05;;;;;;;;;1.00;1.00;;;;;9.07;83.04;99441.22;5072927;28;46215;-62
2021/12/01 06:43:31;;;;;;;;;1.00;0.00;;;;;9.11;82.71;99440.75;5077123;27;45520;-61
2021/12/01 06:45:56;;;;;;;;;0.00;0.00;;;;;9.11;82.57;99432.53;5076539;28;45684;-60
2021/12/01 06:48:22;;;;;;;;;0.25;0.25;;;;;9.11;82.50;99433.38;5093721;27;45582;-58
2021/12/01 06:50:47;;;;;;;;;0.00;0.00;;;;;9.02;83.26;99432.84;5077874;27;45356;-57
2021/12/01 06:53:13;;;;;;;;;0.75;0.00;;;;;9.13;82.62;99439.44;5052294;28;45367;-59
2021/12/01 06:55:38;;;;;;;;;0.00;0.00;;;;;9.07;82.94;99427.53;5035858;28;45387;-58
2021/12/01 06:58:04;;;;;;;;;0.00;0.00;;;;;9.15;82.92;99441.94;5036052;28;45743;-60
2021/12/01 07:00:30;;;;;;;;;0.00;0.00;;;;;9.15;82.90;99431.84;5036689;28;46783;-62
2021/12/01 07:02:56;;;;;;;;;0.00;0.00;;;;;9.17;82.67;99431.56;5035343;28;45504;-62
2021/12/01 07:05:21;;;;;;;;;0.20;0.00;;;;;8.73;82.72;99360.69;5035655;28;45358;-61
2021/12/01 07:07:47;;;;;;;;;0.00;0.00;;;;;9.11;83.35;99407.91;5018956;28;45373;-62
2021/12/01 07:10:13;;;;;;;;;0.00;0.00;;;;;9.20;83.55;99425.66;5018747;28;45376;-61
2021/12/01 07:12:39;;;;;;;;;0.00;0.00;;;;;9.21;82.98;99424.56;5034666;28;45658;-58
2021/12/01 07:15:06;;;;;;;;;0.00;0.00;;;;;9.07;83.09;99396.56;5036697;28;45264;-59
2021/12/01 07:17:32;;;;;;;;;0.00;0.00;;;;;9.34;82.82;99418.88;5036765;28;45697;-58
2021/12/01 07:19:57;;;;;;;;;2.75;0.00;;;;;8.85;83.20;99345.13;5050005;28;45480;-59
2021/12/01 07:22:23;;;;;;;;;0.00;0.00;;;;;9.29;82.30;99418.75;5056478;28;45308;-61
2021/12/01 07:24:48;;;;;;;;;0.00;0.00;;;;;9.35;83.54;99427.94;5057015;28;45320;-58
2021/12/01 07:27:14;;;;;;;;;0.50;0.00;;;;;9.34;83.31;99429.84;5056920;28;45553;-60
2021/12/01 07:29:42;;;;;;;;;0.00;0.00;;;;;9.36;82.74;99426.88;5055481;28;47427;-58
2021/12/01 07:32:08;;;;;;;;;0.60;0.00;;;;;9.30;83.49;99417.69;5055417;28;45873;-60
2021/12/01 07:34:41;;;;;;;;;0.00;0.00;;;;;9.39;83.17;99420.91;5056909;28;45839;-60
2021/12/01 07:37:07;;;;;;;;;1.00;0.00;;;;;9.41;83.33;99420.69;5057089;28;45548;-60
2021/12/01 07:39:33;;;;;;;;;0.00;0.00;;;;;9.43;82.98;99430.31;5033087;28;45903;-60
2021/12/01 07:42:01;;;;;;;;;0.00;0.00;;;;;9.27;82.75;99396.25;5055691;28;45586;-58
2021/12/01 07:44:27;;;;;;;;;0.00;0.00;;;;;9.49;82.96;99434.84;5023108;28;45770;-60
2021/12/01 07:46:52;;;;;;;;;2.00;1.00;;;;;9.52;82.44;99435.44;5055292;28;45350;-59
2021/12/01 07:49:19;;;;;;;;;0.00;0.00;;;;;9.52;83.22;99440.91;5016444;27;45957;-60
2021/12/01 07:51:45;;;;;;;;;1.00;1.00;;;;;9.39;82.41;99404.47;5055431;28;45342;-61
2021/12/01 07:54:10;;;;;;;;;1.00;0.00;;;;;9.55;82.36;99433.06;5055934;28;45492;-62
2021/12/01 07:56:36;;;;;;;;;0.00;0.00;;;;;9.57;82.39;99428.19;5055114;28;45513;-62
2021/12/01 07:59:01;;;;;;;;;0.00;0.00;;;;;9.59;82.29;99430.69;5056357;28;46226;-61
2021/12/01 08:01:27;;;;;;;;;0.00;0.00;;;;;9.62;82.09;99427.47;5038149;28;45494;-61
2021/12/01 08:03:52;;;;;;;;;0.00;0.00;;;;;9.65;82.44;99431.66;5055992;28;45480;-60
2021/12/01 08:06:18;;;;;;;;;1.00;0.00;;;;;9.67;81.51;99421.28;5055063;28;45598;-63
2021/12/01 08:08:43;;;;;;;;;0.00;0.00;;;;;9.68;81.86;99412.84;5055097;28;45732;-62
2021/12/01 08:11:09;;;;;;;;;0.00;0.00;;;;;9.67;82.09;99416.66;5056094;28;45376;-60
2021/12/01 08:13:34;;;;;;;;;0.25;0.00;;;;;9.66;82.05;99404.00;5056183;28;45341;-60
2021/12/01 08:16:00;;;;;;;;;0.00;0.00;;;;;9.68;81.73;99404.63;5056188;28;45545;-62
2021/12/01 08:18:26;;;;;;;;;1.00;0.00;;;;;9.65;82.20;99405.06;5071481;28;46369;-57
2021/12/01 08:20:51;;;;;;;;;0.00;0.00;;;;;9.69;82.77;99405.44;5054902;28;45224;-60
2021/12/01 08:23:17;;;;;;;;;0.00;0.00;;;;;9.77;82.16;99410.56;5056104;28;45299;-63
2021/12/01 08:25:42;;;;;;;;;0.00;0.00;;;;;9.16;81.68;99304.84;5056323;28;45285;-61
2021/12/01 08:28:08;;;;;;;;;0.00;0.00;;;;;9.86;82.04;99400.06;5055568;28;46239;-63
2021/12/01 08:30:33;;;;;;;;;0.00;0.00;;;;;9.88;81.54;99401.47;5056259;28;45251;-60
2021/12/01 08:32:59;;;;;;;;;0.00;0.00;;;;;9.90;81.33;99395.78;5055765;28;45329;-61
2021/12/01 08:35:25;;;;;;;;;0.00;0.00;;;;;9.96;80.44;99396.69;5056296;28;45358;-60
2021/12/01 08:37:51;;;;;;;;;0.00;0.00;;;;;9.96;80.87;99385.75;5055754;28;45464;-61
2021/12/01 08:40:18;;;;;;;;;0.00;0.00;;;;;9.93;80.27;99376.09;5054444;28;45368;-63
2021/12/01 08:42:44;;;;;;;;;0.80;0.00;;;;;9.93;80.71;99392.53;5088245;27;45363;-64
2021/12/01 08:45:09;;;;;;;;;0.00;0.00;;;;;9.95;80.41;99406.00;5056357;28;45269;-65
2021/12/01 08:47:35;;;;;;;;;0.00;0.00;;;;;9.99;80.29;99391.56;5055142;28;45818;-63
2021/12/01 08:50:00;;;;;;;;;0.75;0.75;;;;;10.04;80.29;99404.56;5055406;28;45294;-59
2021/12/01 08:52:26;;;;;;;;;1.00;0.00;;;;;10.06;80.55;99405.16;5055817;28;45311;-61
2021/12/01 08:54:52;;;;;;;;;3.00;0.00;;;;;9.99;80.21;99393.50;5055772;28;45458;-61
2021/12/01 08:57:17;;;;;;;;;0.00;0.00;;;;;10.07;80.31;99412.31;5054354;28;45401;-61
2021/12/01 08:59:44;;;;;;;;;0.00;0.00;;;;;10.07;79.87;99404.09;5055523;28;45348;-61
2021/12/01 09:02:10;;;;;;;;;2.20;1.00;;;;;10.06;79.17;99398.84;5055159;28;45369;-65
2021/12/01 09:04:36;;;;;;;;;1.00;0.00;;;;;10.12;78.96;99404.19;5054903;28;45558;-65
2021/12/01 09:07:02;;;;;;;;;0.25;0.00;;;;;9.73;78.51;99329.91;5055356;28;46412;-64
2021/12/01 09:09:27;;;;;;;;;0.00;0.00;;;;;10.25;78.07;99400.34;5055515;28;45386;-65
2021/12/01 09:11:53;;;;;;;;;0.00;0.00;;;;;10.22;77.86;99384.38;5055387;28;45301;-63
2021/12/01 09:14:19;;;;;;;;;0.00;0.00;;;;;10.39;78.83;99406.38;5055571;28;45405;-59
2021/12/01 09:16:45;;;;;;;;;0.00;0.00;;;;;10.42;76.33;99403.16;5055371;28;45467;-60
2021/12/01 09:19:11;;;;;;;;;0.00;0.00;;;;;10.51;77.34;99409.09;5055095;28;45385;-61
2021/12/01 09:21:36;;;;;;;;;0.75;0.00;;;;;10.56;77.51;99395.50;5054294;28;45316;-61
2021/12/01 09:24:03;;;;;;;;;1.00;0.00;;;;;10.60;77.21;99397.75;5055741;28;45362;-63
2021/12/01 09:26:28;;;;;;;;;1.40;1.40;;;;;10.53;75.32;99390.50;5050126;28;45433;-63
2021/12/01 09:28:54;;;;;;;;;0.00;0.00;;;;;10.47;75.04;99386.00;5053404;28;45437;-63
2021/12/01 09:31:20;;;;;;;;;0.25;0.25;;;;;10.57;75.89;99394.41;5055135;28;45362;-67
2021/12/01 09:33:45;;;;;;;;;1.20;0.60;;;;;10.56;75.63;99394.66;5053370;28;45524;-63
2021/12/01 09:36:11;;;;;;;;;1.00;1.00;;;;;10.56;75.19;99405.63;5053245;28;45850;-62
2021/12/01 09:38:37;;;;;;;;;2.00;1.00;;;;;10.54;73.91;99394.91;5054382;28;45443;-61
2021/12/01 09:41:02;;;;;;;;;1.25;1.00;;;;;10.53;74.03;99404.22;5055343;28;45640;-62
2021/12/01 09:43:29;;;;;;;;;0.00;0.00;;;;;10.51;73.84;99400.88;5053569;28;45404;-61
2021/12/01 09:45:55;;;;;;;;;2.80;0.00;;;;;10.50;73.45;99399.22;5036598;28;45380;-63
2021/12/01 09:48:21;;;;;;;;;0.50;0.50;;;;;10.43;72.78;99406.75;5053340;28;45740;-62
2021/12/01 09:50:47;;;;;;;;;0.00;0.00;;;;;10.49;74.03;99416.75;5054524;28;45366;-62
2021/12/01 09:53:13;;;;;;;;;0.00;0.00;;;;;10.30;73.86;99378.50;5055111;28;45315;-64
2021/12/01 09:55:40;;;;;;;;;0.50;0.00;;;;;10.66;74.13;99426.94;5054488;28;45458;-63
2021/12/01 09:58:32;;;;;;;;;0.00;0.00;;;;;10.68;73.59;99430.28;5053069;28;45513;-59
2021/12/01 10:01:04;;;;;;;;;1.60;0.00;;;;;10.68;74.50;99416.56;5032749;28;45590;-62
2021/12/01 10:03:30;;;;;;;;;1.40;1.40;;;;;10.63;74.09;99424.69;5053548;28;45510;-65
2021/12/01 10:08:38;;;;;;;;;1.40;0.80;;;;;10.61;74.92;99419.44;5053239;28;45449;-61
2021/12/01 10:11:11;;;;;;;;;0.80;0.60;;;;;10.48;74.53;99395.91;5054613;28;45420;-59
2021/12/01 10:13:57;;;;;;;;;1.20;1.00;;;;;10.63;74.70;99422.81;5086959;27;45376;-66
2021/12/01 10:16:24;;;;;;;;;2.60;0.40;;;;;10.63;74.93;99417.31;5054595;28;46034;-66
2021/12/01 10:18:54;;;;;;;;;0.00;0.00;;;;;10.52;74.48;99401.72;5056067;28;45979;-63
2021/12/01 10:21:31;;;;;;;;;1.80;1.00;;;;;10.45;74.16;99388.13;5040042;28;45269;-61
2021/12/01 10:23:59;;;;;;;;;0.20;0.20;;;;;10.06;74.03;99297.41;5057931;28;45324;-62
2021/12/01 10:26:27;;;;;;;;;0.00;0.00;;;;;10.78;72.14;99413.19;5055998;28;47679;-63
2021/12/01 10:28:53;;;;;;;;;1.20;0.00;;;;;10.65;72.27;99397.84;5057867;28;45324;-62
2021/12/01 10:31:30;;;;;;;;;0.00;0.00;;;;;10.60;72.62;99423.28;5056953;28;45185;-61
2021/12/01 10:34:00;;;;;;;;;0.00;0.00;;;;;10.32;73.39;99383.75;5058265;28;45520;-64
2021/12/01 10:36:25;;;;;;;;;3.00;1.20;;;;;10.54;74.31;99429.75;5040537;28;45348;-62
2021/12/01 10:38:51;;;;;;;;;3.00;2.00;;;;;10.52;74.09;99434.66;5057330;28;45267;-61
2021/12/01 10:41:16;;;;;;;;;1.50;1.00;;;;;10.29;74.51;99409.75;5039697;28;45414;-62
2021/12/01 10:43:47;;;;;;;;;1.25;1.00;;;;;10.41;74.56;99436.31;5056379;28;45562;-62
2021/12/01 10:46:16;;;;;;;;;1.80;1.00;;;;;10.31;74.04;99426.78;5055982;28;46746;-63
2021/12/01 10:48:43;;;;;;;;;2.00;1.60;;;;;10.41;73.88;99419.88;5056076;28;45365;-60
2021/12/01 10:51:10;;;;;;;;;4.80;1.80;;;;;10.40;73.18;99430.00;5056010;28;45362;-61
2021/12/01 10:53:36;;;;;;;;;1.40;0.60;;;;;10.35;73.60;99424.41;5056037;28;45608;-61
2021/12/01 10:56:04;;;;;;;;;0.60;0.60;;;;;10.37;73.40;99422.25;5055701;28;48172;-64
2021/12/01 10:58:35;;;;;;;;;0.00;0.00;;;;;10.43;72.43;99435.03;5057196;28;45368;-64
2021/12/01 11:01:01;;;;;;;;;0.00;0.00;;;;;10.54;73.28;99414.13;5057512;28;45408;-65
2021/12/01 11:03:29;;;;;;;;;0.00;0.00;;;;;10.62;72.00;99388.19;5057747;28;45415;-62
2021/12/01 11:06:22;;;;;;;;;1.00;1.00;;;;;10.90;70.92;99422.19;5055851;28;45939;-63
2021/12/01 11:08:55;;;;;;;;;1.00;0.00;;;;;10.89;70.70;99392.25;5055891;28;45526;-62
2021/12/01 11:11:21;;;;;;;;;2.00;1.00;;;;;10.84;70.63;99384.75;5010818;28;45698;-60
2021/12/01 11:13:47;;;;;;;;;1.00;1.00;;;;;10.94;70.86;99406.06;5057229;28;45554;-61
2021/12/01 11:16:13;;;;;;;;;1.75;1.75;;;;;10.96;71.79;99409.38;5055595;28;47965;-62
2021/12/01 11:18:41;;;;;;;;;1.00;1.00;;;;;10.98;70.74;99401.72;5055528;28;45560;-65
2021/12/01 11:21:16;;;;;;;;;1.20;1.20;;;;;10.96;70.51;99402.00;5056972;28;45348;-63
2021/12/01 11:23:48;;;;;;;;;0.80;0.20;;;;;10.75;69.69;99367.84;5057500;28;45326;-61
2021/12/01 11:26:23;;;;;;;;;1.40;1.20;;;;;11.35;70.76;99406.75;5054982;28;46919;-63
2021/12/01 11:29:03;;;;;;;;;2.40;1.40;;;;;14.76;59.22;99390.91;5039133;28;45439;-61
2021/12/01 11:31:36;;;;;;;;;2.00;2.00;;;;;14.04;60.25;99401.66;5039599;28;45374;-62
2021/12/01 11:34:06;;;;;;;;;1.00;1.00;;;;;13.23;61.54;99399.69;5055801;28;45390;-63
2021/12/01 11:36:37;;;;;;;;;3.00;2.00;;;;;12.52;63.44;99384.97;5055204;28;45474;-63
2021/12/01 11:39:05;;;;;;;;;1.00;1.00;;;;;12.16;64.17;99396.38;5056850;28;45392;-61
2021/12/01 11:41:31;;;;;;;;;1.60;0.00;;;;;12.01;65.62;99391.47;5056957;28;45303;-62
2021/12/01 11:43:57;;;;;;;;;6.00;2.00;;;;;11.95;65.90;99398.00;5056252;28;45546;-62